Hauptseite
METAR-TAF:

METAR-TAF

Flughäfen :

Flughafen Guernsey

Guernsey,

Breite: 49-26N, Länge: 002-36W, Höhe: 102 m

Beobachtung

Neuester Wetterbericht von vor 35 Minuten, um 05:20 UTC
Wind 16 kt aus Ost/Nordost
Temperatur 8°C
Luftfeuchtigkeit 71%
Luftdruck 1017 hPa
Sichtweite 10 km oder mehr
Leicht bewölkt in der Höhe von 2200 ft

METAR: EGJB 190520Z 07016KT 9999 FEW022 08/03 Q1017

Zeit: 05:55 (05:55 UTC)

Prognose

Neuester Wetterbericht von vor 57 Minuten, um 04:58 UTC
Gültige Prognose vom 19 um 06 UTC bis 19 um 15 UTC
Wind 18 kt aus Ost, Böen bis zu 30 kt
Sichtweite 10 km oder mehr
Leicht bewölkt in der Höhe von 2000 ft

TAF: EGJB 190458Z 1906/1915 08018G30KT 9999 FEW020

Wetterbeobachtungen und Prognosen von mehr als 4000 Flughäfen (METAR und TAF Bericht).

Die verfügbaren Stationen werden durch gelbe und rote Markierungen auf der Karte dargestellt.

Führen Sie die Maus auf sie, um den Namen der Station zu sehen.

Darauf klicken, um die Beobachtung von Wetterbeobachtungen und Prognosen zu sehen.

Um die Karte zu ändern : klicken Sie auf den grünen Tasten mit einem schwarzen Kreuz Zum Vergrößern, auf den grünen Button mit einem Gedankenstrich zu verkleinern, oder auf die grünen Pfeile für benachbarte Karten.


METAR-TAF: